Data for 05/25/2015

Time Sea-Level Adjusted Pressure Absolute Pressure Temperature Relative Humidity Dew Point   
(mb) (inHg) (mb) (inHg) (C) (F) (%) (C) (F)
00:05 1016 30 846 24.98 7.7 45.8 81 4.6 40.2
00:10 1016 30 846 24.98 7.6 45.7 81 4.5 40.1
00:15 1016 30 846 24.98 7.6 45.7 80 4.5 40
00:20 1016 30 846 24.98 7.6 45.6 81 4.5 40.2
00:25 1016 30 846 24.98 7.3 45.2 82 4.5 40
00:30 1016 30 846 24.98 7.1 44.8 83 4.4 39.8
00:35 1016 30 846 24.98 6.9 44.4 83 4.3 39.7
00:40 1016 30 846 24.98 6.8 44.2 84 4.2 39.6
00:45 1016 30 846 24.98 6.7 44 84 4.2 39.5
00:50 1016 30 846 24.98 6.5 43.8 85 4.1 39.4
00:55 1016 30 846 24.98 6.5 43.6 85 4.1 39.4
01:00 1016 30 846 24.98 6.4 43.6 85 4.1 39.4
01:05 1016 30 846 24.98 6.5 43.6 85 4.1 39.4
01:10 1016 30 846 24.98 6.5 43.7 85 4.1 39.4
01:15 1016 30 846 24.98 6.4 43.5 85 4 39.2
01:20 1016 30 846 24.98 6.3 43.3 85 4 39.2
01:25 1016 30 846 24.98 6.3 43.4 85 4 39.2
01:30 1016 30 846 24.98 6.3 43.4 85 4 39.1
01:35 1016 30 846 24.98 6.3 43.4 85 4 39.2
01:40 1016 30 846 24.98 6.3 43.3 86 4 39.3
01:45 1016 30 846 24.98 6.2 43.2 85 3.9 39.1
01:50 1016 30 846 24.98 6.3 43.4 83 3.7 38.7
01:55 1016 30 846 24.98 6.4 43.4 82 3.6 38.5
02:00 1016 30 846 24.98 6.2 43.2 83 3.5 38.3
02:05 1016 30 846 24.98 5.9 42.6 84 3.4 38.2
02:10 1016 30 846 24.98 5.6 42.1 85 3.3 38
02:15 1016 30 846 24.98 5.4 41.7 86 3.2 37.8
02:20 1016 30 846 24.98 5.3 41.6 86 3.1 37.6
02:25 1016 30 845 24.95 5.4 41.7 86 3.2 37.7
02:30 1016 30 845 24.95 5.4 41.7 86 3.2 37.7
02:35 1016 30 845 24.95 5.5 41.9 85 3.3 37.9
02:40 1016 30 845 24.95 5.5 42 85 3.3 37.9
02:45 1016 30 845 24.95 5.6 42 85 3.3 38
02:50 1016 30 846 24.98 5.6 42.1 85 3.2 37.8
02:55 1016 30 846 24.98 5.6 42.1 85 3.3 37.9
03:00 1016 30 846 24.98 5.6 42.1 86 3.4 38.1
03:05 1016 30 846 24.98 5.6 42.1 85 3.3 37.9
03:10 1016 30 846 24.98 5.7 42.3 85 3.4 38.1
03:15 1016 30 845 24.95 5.6 42.1 86 3.4 38.2
03:20 1016 30 845 24.95 5.6 42 87 3.5 38.3
03:25 1016 30 845 24.95 5.4 41.8 88 3.5 38.4
03:30 1016 30 845 24.95 5.5 41.9 88 3.6 38.5
03:35 1016 30 845 24.95 5.6 42.1 88 3.7 38.7
03:40 1016 30 845 24.95 5.6 42.1 87 3.5 38.3
03:45 1016 30 845 24.95 5.4 41.8 87 3.4 38.1
03:50 1016 30 845 24.95 5.4 41.8 87 3.5 38.3
03:55 1016 30 845 24.95 5.5 42 87 3.5 38.4
04:00 1016 30 845 24.95 5.6 42.2 86 3.5 38.3
04:05 1016 30 845 24.95 5.6 42.1 85 3.2 37.8
04:10 1016 30 845 24.95 5.6 42.1 84 3.2 37.7
04:15 1016 30 845 24.95 5.7 42.3 83 3.1 37.6
04:20 1016 30 845 24.95 5.8 42.5 81 2.8 37
04:25 1016 30 845 24.95 5.6 42.1 81 2.6 36.8
04:30 1016 30 845 24.95 5.4 41.8 82 2.6 36.6
04:35 1016 30 845 24.95 5.4 41.7 81 2.5 36.4
04:40 1016 30 845 24.95 5.7 42.3 80 2.5 36.5
04:45 1016 30 846 24.98 5.9 42.7 80 2.7 36.9
04:50 1016 30 846 24.98 5.7 42.2 81 2.7 36.8
04:55 1016 30 846 24.98 5.3 41.5 83 2.6 36.7
05:00 1016 30 845 24.95 5.3 41.5 83 2.7 36.8
05:05 1016 30 846 24.98 5.6 42.1 82 2.7 36.9
05:10 1016 30 846 24.98 5.7 42.2 82 2.8 37
05:15 1016 30 846 24.98 5.4 41.7 82 2.7 36.8
05:20 1016 30 846 24.98 5.5 41.8 82 2.7 36.8
05:25 1016 30 846 24.98 5.4 41.7 83 2.7 36.8
05:30 1017 30.03 846 24.98 5.4 41.7 82 2.5 36.5
05:35 1017 30.03 846 24.98 5.6 42 80 2.5 36.4
05:40 1017 30.03 846 24.98 5.6 42.1 80 2.5 36.4
05:45 1017 30.03 846 24.98 5.7 42.3 79 2.5 36.4
05:50 1017 30.03 846 24.98 6 42.8 79 2.6 36.6
05:55 1017 30.03 846 24.98 6 42.7 79 2.6 36.7
06:00 1017 30.03 846 24.98 6 42.7 79 2.6 36.7
06:05 1017 30.03 846 24.98 6 42.7 79 2.5 36.6
06:10 1017 30.03 846 24.98 6.3 43.3 77 2.6 36.7
06:15 1017 30.03 846 24.98 6.7 44.1 75 2.7 36.8
06:20 1017 30.03 846 24.98 7.4 45.2 74 3 37.5
06:25 1017 30.03 846 24.98 8.3 46.9 72 3.5 38.2
06:30 1017 30.03 846 24.98 8.8 47.9 72 4 39.3
06:35 1017 30.03 846 24.98 9.4 48.8 69 4 39.2
06:40 1017 30.03 846 24.98 9.9 49.8 69 4.5 40.2
06:45 1016 30 846 24.98 9.6 49.2 69 4.1 39.4
06:50 1016 30 846 24.98 9.5 49.1 68 4 39.2
06:55 1016 30 846 24.98 10 50 66 4 39.3
07:00 1016 30 846 24.98 10.6 51.1 64 4 39.3
07:05 1016 30 846 24.98 10.8 51.5 65 4.6 40.2
07:10 1016 30 846 24.98 10.7 51.2 65 4.4 40
07:15 1016 30 846 24.98 10.9 51.6 64 4.3 39.7
07:20 1016 30 846 24.98 11 51.8 65 4.6 40.3
07:25 1016 30 846 24.98 11 51.7 63 4.3 39.8
07:30 1016 30 846 24.98 11 51.8 62 4.1 39.4
07:35 1016 30 846 24.98 11.2 52.2 61 4 39.2
07:40 1016 30 846 24.98 11.5 52.7 62 4.4 40
07:45 1016 30 846 24.98 11.7 53 61 4.4 39.9
07:50 1016 30 846 24.98 11.2 52.1 63 4.3 39.8
07:55 1016 30 846 24.98 11.5 52.6 61 4.2 39.5
08:00 1016 30 846 24.98 11.9 53.4 61 4.6 40.3
08:05 1016 30 846 24.98 12.2 54 58 4.2 39.6
08:10 1016 30 846 24.98 12.5 54.6 58 4.5 40.1
08:15 1016 30 846 24.98 13.2 55.7 56 4.6 40.2
08:20 1016 30 846 24.98 13.5 56.3 56 4.9 40.7
08:25 1016 30 846 24.98 13.4 56.1 56 4.9 40.7
08:30 1016 30 846 24.98 13.7 56.6 55 4.9 40.8
08:35 1016 30 846 24.98 13.4 56.1 57 5.1 41.2
08:40 1016 30 846 24.98 13.7 56.7 57 5.4 41.8
08:45 1016 30 846 24.98 13.6 56.5 57 5.3 41.5
08:50 1016 30 845 24.95 12.8 55.1 60 5.4 41.7
08:55 1016 30 845 24.95 13.3 56 59 5.5 41.8
09:00 1016 30 845 24.95 13.6 56.5 58 5.5 42
09:05 1016 30 845 24.95 14.3 57.7 54 5.2 41.4
09:10 1016 30 845 24.95 15 59 54 5.8 42.5
09:15 1016 30 845 24.95 14.5 58.1 56 5.9 42.7
09:20 1016 30 845 24.95 14.2 57.5 57 5.8 42.4
09:25 1016 30 845 24.95 13.6 56.4 59 5.8 42.4
09:30 1016 30 845 24.95 14.1 57.4 54 5.1 41.2
09:35 1016 30 845 24.95 14 57.3 53 4.6 40.2
09:40 1016 30 845 24.95 15 59 51 5 41
09:45 1016 30 845 24.95 14.7 58.4 54 5.6 42.2
09:50 1016 30 845 24.95 14.9 58.8 52 5.3 41.5
09:55 1016 30 845 24.95 15.4 59.6 53 5.9 42.6
10:00 1016 30 845 24.95 13.9 57.1 55 5.1 41.1
10:05 1016 30 845 24.95 14.4 57.9 53 5.1 41.1
10:10 1016 30 845 24.95 15.5 59.9 52 5.9 42.6
10:15 1016 30 845 24.95 15.3 59.5 52 5.7 42.2
10:20 1016 30 845 24.95 15.4 59.7 51 5.3 41.6
10:25 1016 30 845 24.95 15.7 60.3 49 5.1 41.2
10:30 1016 30 845 24.95 16 60.8 46 4.7 40.4
10:35 1016 30 845 24.95 15.2 59.3 51 5.1 41.2
10:40 1016 30 845 24.95 15.6 60 49 5 41
10:45 1016 30 845 24.95 16.9 62.3 44 4.8 40.6
10:50 1016 30 845 24.95 17.2 63 45 5.4 41.6
10:55 1016 30 845 24.95 16.9 62.4 48 6 42.8
11:00 1016 30 845 24.95 16.6 61.9 50 6.1 43
11:05 1016 30 845 24.95 16.3 61.4 50 6.1 43
11:10 1016 30 845 24.95 17 62.6 48 6 42.8
11:15 1016 30 845 24.95 16.4 61.5 47 5.1 41.1
11:20 1016 30 845 24.95 17 62.6 45 5.1 41.2
11:25 1016 30 845 24.95 17.2 63 44 4.8 40.7
11:30 1016 30 845 24.95 17.5 63.4 45 5.4 41.7
11:35 1016 30 845 24.95 17 62.6 46 5.3 41.5
11:40 1016 30 845 24.95 17.5 63.6 43 4.8 40.7
11:45 1016 30 845 24.95 16.7 62 47 5.5 41.9
11:50 1016 30 845 24.95 16.4 61.6 46 4.8 40.6
11:55 1016 30 845 24.95 17.2 62.9 46 5.4 41.8
12:00 1016 30 845 24.95 18 64.5 42 5.2 41.3
12:05 1016 30 845 24.95 18.2 64.8 42 5.3 41.6
12:10 1016 30 845 24.95 16.7 62.1 46 5.3 41.5
12:15 1016 30 845 24.95 16.4 61.5 44 4.2 39.6
12:20 1016 30 845 24.95 17.2 62.9 43 4.5 40.1
12:25 1016 30 845 24.95 18 64.4 42 5.1 41.2
12:30 1016 30 845 24.95 18.1 64.6 45 6 42.9
12:35 1015 29.97 845 24.95 17.8 64.1 41 4.6 40.3
12:40 1015 29.97 845 24.95 18.8 65.8 39 4.8 40.7
12:45 1015 29.97 845 24.95 19 66.1 38 4.3 39.7
12:50 1015 29.97 845 24.95 19.4 66.9 39 5.2 41.3
12:55 1015 29.97 844 24.92 19.6 67.3 35 4 39.2
13:00 1015 29.97 845 24.95 18.2 64.7 39 4.2 39.6
13:05 1015 29.97 845 24.95 18.4 65.1 36 3.1 37.5
13:10 1015 29.97 845 24.95 19.5 67 36 4.2 39.5
13:15 1015 29.97 844 24.92 19.1 66.4 34 3.1 37.5
13:20 1015 29.97 844 24.92 18.9 66 34 2.8 37.1
13:25 1015 29.97 844 24.92 17.9 64.3 38 3.6 38.5
13:30 1015 29.97 844 24.92 17.7 63.8 37 2.9 37.2
13:35 1015 29.97 844 24.92 18.1 64.5 38 3.8 38.8
13:40 1015 29.97 844 24.92 17.8 64.1 40 4 39.3
13:45 1015 29.97 844 24.92 17.8 64.1 40 4.2 39.6
13:50 1015 29.97 844 24.92 18.1 64.6 39 3.9 39.1
13:55 1015 29.97 844 24.92 18.8 65.9 35 3.2 37.8
14:00 1015 29.97 844 24.92 18.2 64.8 35 2.6 36.6
14:05 1015 29.97 844 24.92 17.8 64 37 2.9 37.3
14:10 1015 29.97 844 24.92 18.7 65.6 34 2.5 36.5
14:15 1015 29.97 844 24.92 19.2 66.5 32 2.3 36.1
14:20 1015 29.97 844 24.92 19.3 66.8 33 2.7 36.9
14:25 1015 29.97 844 24.92 19 66.1 32 2.2 36
14:30 1015 29.97 844 24.92 20.2 68.3 30 2 35.7
14:35 1015 29.97 844 24.92 20.9 69.7 28 1.8 35.3
14:40 1014 29.94 844 24.92 20.7 69.3 29 2.1 35.7
14:45 1014 29.94 844 24.92 19.3 66.7 30 1.3 34.4
14:50 1014 29.94 844 24.92 19.9 67.9 30 2 35.6
14:55 1014 29.94 844 24.92 20.1 68.2 31 2.4 36.3
15:00 1014 29.94 844 24.92 20.3 68.5 30 2.5 36.5
15:05 1014 29.94 844 24.92 20.3 68.5 31 2.6 36.7
15:10 1014 29.94 844 24.92 19.7 67.4 33 3 37.5
15:15 1014 29.94 844 24.92 19.8 67.6 32 2.8 37
15:20 1014 29.94 843 24.89 20.3 68.6 29 1.7 35
15:25 1014 29.94 843 24.89 20.7 69.3 27 1 33.7
15:30 1014 29.94 843 24.89 20.1 68.1 27 0.7 33.3
15:35 1014 29.94 843 24.89 19.9 67.8 28 0.8 33.4
15:40 1014 29.94 843 24.89 19.6 67.3 27 0.1 32.3
15:45 1014 29.94 843 24.89 19.1 66.4 28 0.2 32.3
15:50 1014 29.94 843 24.89 19.9 67.8 26 -0 32
15:55 1014 29.94 843 24.89 20.2 68.4 25 -0.2 31.7
16:00 1014 29.94 843 24.89 20 68 27 0.4 32.7
16:05 1014 29.94 843 24.89 19.6 67.3 26 -0.2 31.6
16:10 1014 29.94 843 24.89 20.2 68.3 24 -0.7 30.7
16:15 1014 29.94 843 24.89 20.4 68.7 23 -1.5 29.4
16:20 1014 29.94 843 24.89 21.3 70.3 22 -1.2 29.8
16:25 1014 29.94 843 24.89 20.9 69.7 23 -1 30.3
16:30 1014 29.94 843 24.89 20.6 69.1 23 -1.3 29.6
16:35 1014 29.94 843 24.89 20.8 69.4 22 -1.4 29.6
16:40 1013 29.91 843 24.89 20.1 68.2 25 -0.6 30.9
16:45 1014 29.94 843 24.89 20.1 68.1 25 -0.5 31.1
16:50 1013 29.91 843 24.89 19.8 67.6 30 1.7 35
16:55 1013 29.91 843 24.89 19.9 67.8 30 2 35.5
17:00 1013 29.91 843 24.89 19.6 67.3 30 1.8 35.3
17:05 1013 29.91 843 24.89 19.3 66.8 30 1.7 35
17:10 1013 29.91 842 24.86 19.2 66.6 30 1.4 34.6
17:15 1013 29.91 842 24.86 19.2 66.6 29 0.8 33.4
17:20 1013 29.91 842 24.86 19.5 67 28 0.9 33.5
17:25 1013 29.91 842 24.86 19.3 66.7 28 0.5 33
17:30 1013 29.91 842 24.86 19.3 66.8 29 1 33.7
17:35 1013 29.91 842 24.86 19.6 67.2 26 -0.1 31.9
17:40 1013 29.91 842 24.86 19.5 67 27 -0.1 31.8
17:45 1013 29.91 842 24.86 19.3 66.8 28 0.4 32.6
17:50 1013 29.91 842 24.86 19.2 66.5 32 2.3 36.1
17:55 1013 29.91 842 24.86 18.6 65.5 34 2.4 36.3
18:00 1013 29.91 842 24.86 18.3 65 34 2.5 36.5
18:05 1013 29.91 842 24.86 18.1 64.5 36 2.7 36.9
18:10 1013 29.91 842 24.86 17.9 64.2 36 2.7 36.8
18:15 1013 29.91 842 24.86 17.7 63.9 37 2.9 37.3
18:20 1013 29.91 842 24.86 17.6 63.7 38 3.4 38.2
18:25 1013 29.91 842 24.86 17.5 63.5 39 3.6 38.4
18:30 1013 29.91 842 24.86 17.4 63.4 38 3 37.5
18:35 1013 29.91 843 24.89 17.4 63.3 38 3.1 37.6
18:40 1013 29.91 843 24.89 17.4 63.4 38 3 37.5
18:45 1013 29.91 843 24.89 17.4 63.2 38 3.1 37.7
18:50 1013 29.91 843 24.89 17.3 63.1 38 3 37.5
18:55 1013 29.91 843 24.89 17.2 63 38 2.9 37.3
19:00 1013 29.91 843 24.89 17.1 62.8 39 3.1 37.7
19:05 1013 29.91 843 24.89 17.1 62.7 39 3.3 37.9
19:10 1013 29.91 843 24.89 16.9 62.5 40 3.5 38.3
19:15 1013 29.91 843 24.89 16.8 62.3 41 3.7 38.7
19:20 1013 29.91 843 24.89 16.7 62 43 4 39.2
19:25 1013 29.91 843 24.89 16.5 61.7 44 4.2 39.6
19:30 1013 29.91 843 24.89 16.3 61.3 44 4.2 39.5
19:35 1013 29.91 843 24.89 16.1 61.1 45 4.2 39.6
19:40 1013 29.91 843 24.89 15.9 60.7 46 4.3 39.8
19:45 1013 29.91 843 24.89 15.7 60.3 47 4.4 40
19:50 1013 29.91 843 24.89 15.4 59.8 47 4.4 40
19:55 1013 29.91 843 24.89 15.3 59.5 48 4.3 39.8
20:00 1013 29.91 843 24.89 15.1 59.2 48 4.4 39.9
20:05 1014 29.94 843 24.89 14.9 58.8 49 4.3 39.8
20:10 1014 29.94 843 24.89 14.8 58.6 49 4.3 39.7
20:15 1014 29.94 843 24.89 14.7 58.4 49 4.1 39.3
20:20 1014 29.94 843 24.89 14.6 58.3 49 4.2 39.5
20:25 1014 29.94 843 24.89 14.6 58.2 49 4.1 39.4
20:30 1014 29.94 843 24.89 14.5 58.1 49 3.9 39
20:35 1014 29.94 843 24.89 14.6 58.2 48 3.8 38.9
20:40 1014 29.94 843 24.89 14.7 58.4 47 3.4 38.2
20:45 1014 29.94 844 24.92 14.8 58.6 46 3.3 38
20:50 1015 29.97 844 24.92 14.9 58.7 46 3.3 37.9
20:55 1015 29.97 844 24.92 14.8 58.6 51 4.8 40.6
21:00 1015 29.97 844 24.92 14.5 58.2 48 3.8 38.9
21:05 1015 29.97 845 24.95 14.7 58.4 47 3.7 38.6
21:10 1015 29.97 845 24.95 14.4 57.9 49 4 39.2
21:15 1015 29.97 845 24.95 14.1 57.4 51 4.1 39.4
21:20 1015 29.97 845 24.95 13.8 56.9 52 4.2 39.6
21:25 1015 29.97 845 24.95 13.6 56.5 52 4 39.2
21:30 1015 29.97 845 24.95 13.5 56.3 53 4.3 39.7
21:35 1016 30 845 24.95 13.3 55.9 55 4.4 39.9
21:40 1016 30 845 24.95 13 55.5 57 4.8 40.6
21:45 1016 30 845 24.95 12.7 54.9 59 5 40.9
21:50 1016 30 845 24.95 12.5 54.5 60 5 41.1
21:55 1016 30 845 24.95 12.4 54.3 61 5.2 41.3
22:00 1016 30 845 24.95 12.2 54 63 5.5 41.8
22:05 1016 30 845 24.95 12.1 53.8 65 5.8 42.4
22:10 1016 30 845 24.95 11.8 53.3 69 6.3 43.4
22:15 1016 30 845 24.95 11.6 52.9 69 6.2 43.2
22:20 1016 30 845 24.95 11.5 52.8 69 6.2 43.1
22:25 1016 30 845 24.95 11.4 52.6 72 6.6 43.9
22:30 1016 30 845 24.95 11.3 52.4 71 6.3 43.3
22:35 1016 30 845 24.95 11.4 52.6 70 6.1 42.9
22:40 1016 30 845 24.95 11.6 52.8 66 5.6 42
22:45 1016 30 845 24.95 11.6 52.9 67 5.7 42.2
22:50 1016 30 845 24.95 11.8 53.2 67 6 42.7
22:55 1016 30 845 24.95 11.7 53.1 65 5.4 41.8
23:00 1016 30 845 24.95 11.6 52.8 67 5.6 42.1
23:05 1016 30 845 24.95 11.4 52.6 68 5.7 42.3
23:10 1016 30 845 24.95 11.4 52.4 69 6 42.8
23:15 1016 30 845 24.95 11.3 52.3 71 6.3 43.3
23:20 1016 30 845 24.95 11.3 52.3 66 5.1 41.2
23:25 1016 30 846 24.98 11.2 52.1 72 6.4 43.5
23:30 1016 30 846 24.98 10.6 51.1 74 6.3 43.3
23:35 1016 30 846 24.98 10.4 50.6 75 6.2 43.1
23:40 1016 30 846 24.98 10.3 50.6 77 6.6 43.8
23:45 1016 30 846 24.98 10.1 50.2 80 6.7 44.1
23:50 1016 30 846 24.98 10 49.9 80 6.6 44
23:55 1016 30 846 24.98 10.2 50.3 77 6.2 43.2
24:00 1017 30.03 846 24.98 10.3 50.5 76 6.4 43.5